createdAt,value
2019-05-29T00:00:33.685Z,1.77
2019-05-29T00:03:02.539Z,2.13
2019-05-29T00:05:30.963Z,9.83
2019-05-29T00:07:59.394Z,2.30
2019-05-29T00:10:27.826Z,3.47
2019-05-29T00:12:56.249Z,4.87
2019-05-29T00:15:24.686Z,4.20
2019-05-29T00:17:53.103Z,4.17
2019-05-29T00:20:21.536Z,5.00
2019-05-29T00:22:49.946Z,5.83
2019-05-29T00:25:18.868Z,4.73
2019-05-29T00:27:47.333Z,2.97
2019-05-29T00:30:16.965Z,2.60
2019-05-29T00:32:46.166Z,3.10
2019-05-29T00:35:14.757Z,3.00
2019-05-29T00:37:43.211Z,6.67
2019-05-29T00:40:12.998Z,3.73
2019-05-29T00:42:41.983Z,4.37
2019-05-29T00:45:11.482Z,5.03
2019-05-29T00:47:40.162Z,4.43
2019-05-29T00:50:09.896Z,3.47
2019-05-29T00:52:38.517Z,2.03
2019-05-29T00:55:08.576Z,3.37
2019-05-29T00:57:37.339Z,4.93
2019-05-29T01:00:07.005Z,3.30
2019-05-29T01:02:35.426Z,2.90
2019-05-29T01:05:07.608Z,5.37
2019-05-29T01:07:36.020Z,10.27
2019-05-29T01:10:07.096Z,4.43
2019-05-29T01:12:35.516Z,6.47
2019-05-29T01:15:05.840Z,8.30
2019-05-29T01:17:34.264Z,2.20
2019-05-29T01:20:02.749Z,2.60
2019-05-29T01:22:31.249Z,1.93
2019-05-29T01:24:59.696Z,4.97
2019-05-29T01:27:28.106Z,4.23
2019-05-29T01:29:56.612Z,4.20
2019-05-29T01:32:25.033Z,3.43
2019-05-29T01:34:53.452Z,3.10
2019-05-29T01:37:22.293Z,6.30
2019-05-29T01:39:50.965Z,2.77
2019-05-29T01:42:19.497Z,2.80
2019-05-29T01:44:48.172Z,2.87
2019-05-29T01:47:17.406Z,4.97
2019-05-29T01:49:45.933Z,2.83
2019-05-29T01:52:15.497Z,3.80
2019-05-29T01:54:44.149Z,4.60
2019-05-29T01:57:12.557Z,5.73
2019-05-29T01:59:41.004Z,5.53
2019-05-29T02:02:09.791Z,5.90
2019-05-29T02:04:38.189Z,10.87
2019-05-29T02:07:06.689Z,4.87
2019-05-29T02:09:35.113Z,5.20
2019-05-29T02:12:03.658Z,8.10
2019-05-29T02:14:32.091Z,3.13
2019-05-29T02:17:00.486Z,7.90
2019-05-29T02:19:28.925Z,7.13
2019-05-29T02:21:57.342Z,4.47
2019-05-29T02:24:25.763Z,2.90
2019-05-29T02:26:54.182Z,4.87
2019-05-29T02:29:23.016Z,7.23
2019-05-29T02:31:51.478Z,3.33
2019-05-29T02:34:20.158Z,4.57
2019-05-29T02:36:49.335Z,4.20
2019-05-29T02:39:18.705Z,3.03
2019-05-29T02:41:47.955Z,6.37
2019-05-29T02:44:16.368Z,4.93
2019-05-29T02:46:44.859Z,3.17
2019-05-29T02:49:13.343Z,3.63
2019-05-29T02:51:41.818Z,8.97
2019-05-29T02:54:10.248Z,2.90
2019-05-29T02:56:42.303Z,2.70
2019-05-29T02:59:08.816Z,6.83
2019-05-29T03:01:37.248Z,3.30
2019-05-29T03:04:05.644Z,4.90
2019-05-29T03:06:34.508Z,4.60
2019-05-29T03:09:05.560Z,2.77
2019-05-29T03:11:34.050Z,2.67
2019-05-29T03:14:02.464Z,3.93
2019-05-29T03:16:32.863Z,2.37
2019-05-29T03:19:01.324Z,6.80
2019-05-29T03:21:30.744Z,3.80
2019-05-29T03:23:59.893Z,5.70
2019-05-29T03:26:30.640Z,2.83
2019-05-29T03:28:58.738Z,5.17
2019-05-29T03:31:30.832Z,6.50
2019-05-29T03:33:57.306Z,3.23
2019-05-29T03:36:28.355Z,3.20
2019-05-29T03:38:55.839Z,3.47
2019-05-29T03:41:24.252Z,5.07
2019-05-29T03:43:52.663Z,4.07
2019-05-29T03:46:31.680Z,4.10
2019-05-29T03:48:51.229Z,3.53
2019-05-29T03:51:19.640Z,11.80
2019-05-29T03:53:48.082Z,10.30
2019-05-29T03:56:16.496Z,8.23
2019-05-29T03:58:45.220Z,4.63
2019-05-29T04:01:13.647Z,6.03
2019-05-29T04:03:42.061Z,3.20
2019-05-29T04:06:10.487Z,4.57
2019-05-29T04:08:38.912Z,4.07
2019-05-29T04:11:08.130Z,3.60
2019-05-29T04:13:38.745Z,3.30
2019-05-29T04:16:09.793Z,5.20
2019-05-29T04:18:39.755Z,3.43
2019-05-29T04:21:10.776Z,7.30
2019-05-29T04:23:42.038Z,4.00
2019-05-29T04:26:13.651Z,10.33
2019-05-29T04:28:42.873Z,6.00
2019-05-29T04:31:11.273Z,9.47
2019-05-29T04:33:39.711Z,11.50
2019-05-29T04:36:08.118Z,15.53
2019-05-29T04:38:38.512Z,4.50
2019-05-29T04:41:06.671Z,5.73
2019-05-29T04:43:36.038Z,5.50
2019-05-29T04:46:05.309Z,4.77
2019-05-29T04:48:35.642Z,11.30
2019-05-29T04:51:03.870Z,7.00
2019-05-29T04:53:33.491Z,4.90
2019-05-29T04:56:02.274Z,3.90
2019-05-29T04:58:30.780Z,6.47
2019-05-29T05:00:59.702Z,5.13
2019-05-29T05:03:29.064Z,4.80
2019-05-29T05:05:57.795Z,4.00
2019-05-29T05:08:26.204Z,13.03
2019-05-29T05:10:54.623Z,5.13
2019-05-29T05:13:23.026Z,8.27
2019-05-29T05:15:53.227Z,4.60
2019-05-29T05:18:21.639Z,8.80
2019-05-29T05:20:50.092Z,7.87
2019-05-29T05:23:18.491Z,8.80
2019-05-29T05:25:46.999Z,6.13
2019-05-29T05:28:15.435Z,10.47
2019-05-29T05:30:43.915Z,4.40
2019-05-29T05:33:12.352Z,7.93
2019-05-29T05:35:41.088Z,11.00
2019-05-29T05:38:09.755Z,5.20
2019-05-29T05:40:41.056Z,8.07
2019-05-29T05:43:21.208Z,7.03
2019-05-29T05:45:39.206Z,5.63
2019-05-29T05:48:07.952Z,4.70
2019-05-29T05:50:37.277Z,4.27
2019-05-29T05:53:06.001Z,5.80
2019-05-29T05:55:35.498Z,7.93
2019-05-29T05:58:04.097Z,4.93
2019-05-29T06:00:35.830Z,4.53
2019-05-29T06:03:05.367Z,9.03
2019-05-29T06:05:34.015Z,3.80
2019-05-29T06:08:02.593Z,5.70
2019-05-29T06:10:32.040Z,6.33
2019-05-29T06:13:00.741Z,4.20
2019-05-29T06:15:29.189Z,9.33
2019-05-29T06:18:19.517Z,4.97
2019-05-29T06:20:27.767Z,4.10
2019-05-29T06:22:56.255Z,8.70
2019-05-29T06:25:25.931Z,3.47
2019-05-29T06:27:54.505Z,3.37
2019-05-29T06:30:23.316Z,6.27
2019-05-29T06:32:51.794Z,5.77
2019-05-29T06:35:20.262Z,8.67
2019-05-29T06:37:48.699Z,7.87
2019-05-29T06:40:31.963Z,5.07
2019-05-29T06:43:00.387Z,3.63
2019-05-29T06:45:35.734Z,3.23
2019-05-29T06:48:07.460Z,7.20
2019-05-29T06:50:37.253Z,4.40
2019-05-29T06:53:06.076Z,5.07
2019-05-29T06:55:35.750Z,9.03
2019-05-29T06:58:04.472Z,6.30
2019-05-29T07:00:35.706Z,7.03
2019-05-29T07:03:03.062Z,5.23
2019-05-29T07:05:31.590Z,10.40
2019-05-29T07:08:17.012Z,7.47
2019-05-29T07:10:30.218Z,7.40
2019-05-29T07:12:58.657Z,7.97
2019-05-29T07:15:27.102Z,3.27
2019-05-29T07:17:55.608Z,6.27
2019-05-29T07:20:24.152Z,3.00
2019-05-29T07:22:52.824Z,8.30
2019-05-29T07:25:21.247Z,13.80
2019-05-29T07:27:49.684Z,1.93
2019-05-29T07:30:18.518Z,4.73
2019-05-29T07:32:56.733Z,12.93
2019-05-29T07:35:17.185Z,2.20
2019-05-29T07:40:35.844Z,4.93
2019-05-29T07:43:04.562Z,8.63
2019-05-29T07:45:33.061Z,6.07
2019-05-29T07:48:01.490Z,3.27
2019-05-29T07:50:29.993Z,5.07
2019-05-29T07:52:58.479Z,5.00
2019-05-29T07:55:26.968Z,4.60
2019-05-29T07:57:55.436Z,5.33
2019-05-29T08:00:34.706Z,9.23
2019-05-29T08:02:54.372Z,10.40
2019-05-29T08:05:22.850Z,4.93
2019-05-29T08:07:51.298Z,2.43
2019-05-29T08:10:20.558Z,3.57
2019-05-29T08:12:54.314Z,4.73
2019-05-29T08:15:19.284Z,5.47
2019-05-29T08:17:48.219Z,5.77
2019-05-29T08:20:17.053Z,5.13
2019-05-29T08:22:46.419Z,7.20
2019-05-29T08:25:15.220Z,6.67
2019-05-29T08:27:44.767Z,3.10
2019-05-29T08:30:13.912Z,6.10
2019-05-29T08:32:43.512Z,4.93
2019-05-29T08:35:14.360Z,10.10
2019-05-29T08:37:42.876Z,3.63
2019-05-29T08:40:11.906Z,2.87
2019-05-29T08:42:41.073Z,3.77
2019-05-29T08:45:10.409Z,5.73
2019-05-29T08:47:38.834Z,4.50
2019-05-29T08:50:18.234Z,3.60
2019-05-29T08:52:38.041Z,4.90
2019-05-29T08:55:06.910Z,2.30
2019-05-29T08:57:35.345Z,4.40
2019-05-29T09:00:08.982Z,4.77
2019-05-29T09:02:37.414Z,7.77
2019-05-29T09:05:07.574Z,3.10
2019-05-29T09:07:36.008Z,1.93
2019-05-29T09:10:06.771Z,4.50
2019-05-29T09:12:35.246Z,2.37
2019-05-29T09:15:05.366Z,5.30
2019-05-29T09:17:34.612Z,3.70
2019-05-29T09:20:04.587Z,1.43
2019-05-29T09:22:33.023Z,1.87
2019-05-29T09:25:01.472Z,3.00
2019-05-29T09:27:29.943Z,1.80
2019-05-29T09:29:58.388Z,3.57
2019-05-29T09:32:48.668Z,2.57
2019-05-29T09:34:56.983Z,11.70
2019-05-29T09:37:25.453Z,7.40
2019-05-29T09:39:53.891Z,3.53
2019-05-29T09:42:23.606Z,7.47
2019-05-29T09:44:52.390Z,3.77
2019-05-29T09:47:22.224Z,5.50
2019-05-29T09:49:50.712Z,3.77
2019-05-29T09:52:19.145Z,3.20
2019-05-29T09:54:47.561Z,5.00
2019-05-29T09:57:15.997Z,3.00
2019-05-29T09:59:44.410Z,3.97
2019-05-29T10:02:13.180Z,3.53
2019-05-29T10:04:41.593Z,4.87
2019-05-29T10:07:13.077Z,4.90
2019-05-29T10:09:41.540Z,6.20
2019-05-29T10:12:09.973Z,2.60
2019-05-29T10:14:38.385Z,2.60
2019-05-29T10:17:11.337Z,8.60
2019-05-29T10:19:37.016Z,2.80
2019-05-29T10:22:05.869Z,4.87
2019-05-29T10:24:34.363Z,10.30
2019-05-29T10:27:03.583Z,2.43
2019-05-29T10:29:32.998Z,2.43
2019-05-29T10:32:01.431Z,6.07
2019-05-29T10:34:29.868Z,3.77
2019-05-29T10:36:58.281Z,4.23
2019-05-29T10:39:26.717Z,3.33
2019-05-29T10:41:55.123Z,6.00
2019-05-29T10:44:23.554Z,2.43
2019-05-29T10:46:54.134Z,2.20
2019-05-29T10:49:22.147Z,3.07
2019-05-29T10:52:07.637Z,3.00
2019-05-29T10:54:20.726Z,2.20
2019-05-29T10:56:50.683Z,2.43
2019-05-29T10:59:19.351Z,3.00
2019-05-29T11:01:49.084Z,4.87
2019-05-29T11:04:17.763Z,3.10
2019-05-29T11:06:46.669Z,7.67
2019-05-29T11:09:16.305Z,4.83
2019-05-29T11:11:46.141Z,3.77
2019-05-29T11:14:14.778Z,3.20
2019-05-29T11:16:43.404Z,3.10
2019-05-29T11:19:11.816Z,4.03
2019-05-29T11:21:40.231Z,2.53
2019-05-29T11:24:08.662Z,2.90
2019-05-29T11:26:37.088Z,4.33
2019-05-29T11:29:05.716Z,6.17
2019-05-29T11:31:34.148Z,5.30
2019-05-29T11:34:02.637Z,3.90
2019-05-29T11:36:31.065Z,6.73
2019-05-29T11:39:05.593Z,5.60
2019-05-29T11:41:29.649Z,4.50
2019-05-29T11:43:58.970Z,5.20
2019-05-29T11:46:27.662Z,4.13
2019-05-29T11:48:57.315Z,2.93
2019-05-29T11:51:26.082Z,4.27
2019-05-29T11:53:55.420Z,3.00
2019-05-29T11:56:24.001Z,3.20
2019-05-29T11:58:52.743Z,4.23
2019-05-29T12:01:21.474Z,3.70
2019-05-29T12:04:13.598Z,3.93
2019-05-29T12:06:20.059Z,6.20
2019-05-29T12:08:48.503Z,3.00
2019-05-29T12:11:16.987Z,3.27
2019-05-29T12:13:45.479Z,4.73
2019-05-29T12:16:13.904Z,3.10
2019-05-29T12:18:42.347Z,7.13
2019-05-29T12:21:10.784Z,4.50
2019-05-29T12:23:39.200Z,7.80
2019-05-29T12:26:21.468Z,3.53
2019-05-29T12:28:37.815Z,3.37
2019-05-29T12:31:06.300Z,4.27
2019-05-29T12:33:34.733Z,8.50
2019-05-29T12:36:03.438Z,3.27
2019-05-29T12:38:31.929Z,7.40
2019-05-29T12:41:01.675Z,4.03
2019-05-29T12:43:30.389Z,3.87
2019-05-29T12:46:00.103Z,5.73
2019-05-29T12:48:28.691Z,14.53
2019-05-29T12:50:58.228Z,7.03
2019-05-29T12:53:30.810Z,4.60
2019-05-29T12:56:16.823Z,5.90
2019-05-29T12:58:45.240Z,5.17
2019-05-29T13:01:13.683Z,7.07
2019-05-29T13:03:45.261Z,5.57
2019-05-29T13:06:12.244Z,3.43
2019-05-29T13:08:40.651Z,9.17
2019-05-29T13:11:09.067Z,4.10
2019-05-29T13:13:37.508Z,4.73
2019-05-29T13:16:05.958Z,3.90
2019-05-29T13:18:34.373Z,5.60
2019-05-29T13:21:03.224Z,7.90
2019-05-29T13:23:44.171Z,6.33
2019-05-29T13:26:01.788Z,15.73
2019-05-29T13:28:30.236Z,6.63
2019-05-29T13:30:59.765Z,6.67
2019-05-29T13:33:28.537Z,4.20
2019-05-29T13:35:58.057Z,5.27
2019-05-29T13:38:26.707Z,6.10
2019-05-29T13:40:56.229Z,11.90
2019-05-29T13:43:24.816Z,5.00
2019-05-29T13:45:53.224Z,5.27
2019-05-29T13:48:23.475Z,6.00
2019-05-29T13:50:51.866Z,2.30
2019-05-29T13:53:20.304Z,3.40
2019-05-29T13:55:48.730Z,3.80
2019-05-29T13:58:17.150Z,6.53
2019-05-29T14:00:45.578Z,2.30
2019-05-29T14:03:14.011Z,1.93
2019-05-29T14:05:42.433Z,2.53
2019-05-29T14:08:10.848Z,4.27
2019-05-29T14:10:39.406Z,2.97
2019-05-29T14:13:09.198Z,2.67
2019-05-29T14:15:37.949Z,3.47
2019-05-29T14:18:07.071Z,3.87
2019-05-29T14:20:35.788Z,5.20
2019-05-29T14:23:05.330Z,2.93
2019-05-29T14:25:33.965Z,6.23
2019-05-29T14:28:02.684Z,4.63
2019-05-29T14:30:31.359Z,2.57
2019-05-29T14:32:59.786Z,3.60
2019-05-29T14:35:28.198Z,3.00
2019-05-29T14:37:56.639Z,3.57
2019-05-29T14:40:25.066Z,3.43
2019-05-29T14:42:53.498Z,4.13
2019-05-29T14:45:21.955Z,5.27
2019-05-29T14:47:50.386Z,4.47
2019-05-29T14:50:18.810Z,6.93
2019-05-29T14:52:47.235Z,4.37
2019-05-29T14:55:18.265Z,4.03
2019-05-29T14:57:45.858Z,2.23
2019-05-29T15:00:24.737Z,1.83
2019-05-29T15:02:46.551Z,4.63
2019-05-29T15:05:15.329Z,2.00
2019-05-29T15:07:43.789Z,2.70
2019-05-29T15:10:25.184Z,2.10
2019-05-29T15:12:44.144Z,1.65
2019-05-29T15:15:14.255Z,2.90
2019-05-29T15:17:43.378Z,1.30
2019-05-29T15:20:12.959Z,1.50
2019-05-29T15:22:42.359Z,2.87
2019-05-29T15:25:19.935Z,4.65
2019-05-29T15:27:41.191Z,2.67
2019-05-29T15:30:11.331Z,3.62
2019-05-29T15:32:40.473Z,2.08
2019-05-29T15:35:14.490Z,1.52
2019-05-29T15:37:40.635Z,1.30
2019-05-29T15:40:10.943Z,1.47
2019-05-29T15:42:39.807Z,2.92
2019-05-29T15:45:10.074Z,1.27
2019-05-29T15:47:38.620Z,1.97
2019-05-29T15:50:13.384Z,2.87
2019-05-29T15:52:42.221Z,5.33
2019-05-29T15:55:27.302Z,3.10
2019-05-29T15:57:40.944Z,3.80
2019-05-29T16:00:11.523Z,2.77
2019-05-29T16:02:40.170Z,2.97
2019-05-29T16:05:11.268Z,4.47
2019-05-29T16:07:39.924Z,4.00
2019-05-29T16:10:14.171Z,3.97
2019-05-29T16:12:40.462Z,8.37
2019-05-29T16:15:11.085Z,3.40
2019-05-29T16:17:39.950Z,3.20
2019-05-29T16:20:12.423Z,3.60
2019-05-29T16:22:40.912Z,3.33
2019-05-29T16:25:10.749Z,3.60
2019-05-29T16:27:39.818Z,8.50
2019-05-29T16:30:09.289Z,7.03
2019-05-29T16:32:37.696Z,3.70
2019-05-29T16:35:08.542Z,4.90
2019-05-29T16:37:36.984Z,4.30
2019-05-29T16:40:14.325Z,8.17
2019-05-29T16:42:43.218Z,4.40
2019-05-29T16:45:12.469Z,5.60
2019-05-29T16:47:40.903Z,3.93
2019-05-29T16:50:10.059Z,5.23
2019-05-29T16:52:38.761Z,5.30
2019-05-29T16:55:07.835Z,5.40
2019-05-29T16:57:36.255Z,7.70
2019-05-29T17:00:07.821Z,5.33
2019-05-29T17:02:36.235Z,5.73
2019-05-29T17:05:08.705Z,5.67
2019-05-29T17:07:37.118Z,4.30
2019-05-29T17:10:09.344Z,6.00
2019-05-29T17:12:37.757Z,6.17
2019-05-29T17:15:11.201Z,5.77
2019-05-29T17:17:39.716Z,6.30
2019-05-29T17:20:09.572Z,6.20
2019-05-29T17:22:38.090Z,11.73
2019-05-29T17:25:07.080Z,11.00
2019-05-29T17:27:35.491Z,6.37
2019-05-29T17:30:05.471Z,7.27
2019-05-29T17:32:33.910Z,6.90
2019-05-29T17:35:02.484Z,6.53
2019-05-29T17:37:30.937Z,6.47
2019-05-29T17:39:59.353Z,6.70
2019-05-29T17:42:27.788Z,10.07
2019-05-29T17:44:56.224Z,5.43
2019-05-29T17:47:25.670Z,7.30
2019-05-29T17:49:54.353Z,7.13
2019-05-29T17:52:23.840Z,6.97
2019-05-29T17:54:52.584Z,12.33
2019-05-29T17:57:21.949Z,6.23
2019-05-29T17:59:50.512Z,8.33
2019-05-29T18:02:20.104Z,7.70
2019-05-29T18:04:48.749Z,7.53
2019-05-29T18:07:18.393Z,7.60
2019-05-29T18:09:47.005Z,13.50
2019-05-29T18:12:16.996Z,9.73
2019-05-29T18:14:45.712Z,10.47
2019-05-29T18:17:14.152Z,8.33
2019-05-29T18:19:42.652Z,10.60
2019-05-29T18:22:11.377Z,13.90
2019-05-29T18:24:39.810Z,14.40
2019-05-29T18:27:08.228Z,9.97
2019-05-29T18:29:36.661Z,11.93
2019-05-29T18:32:05.083Z,17.63
2019-05-29T18:34:33.805Z,10.23
2019-05-29T18:37:02.237Z,11.73
2019-05-29T18:39:30.653Z,13.50
2019-05-29T18:41:59.098Z,12.23
2019-05-29T18:44:28.863Z,14.40
2019-05-29T18:46:57.626Z,13.77
2019-05-29T18:49:26.476Z,17.83
2019-05-29T18:51:54.939Z,10.33
2019-05-29T18:54:23.754Z,10.80
2019-05-29T18:57:13.762Z,16.00
2019-05-29T18:59:23.272Z,11.23
2019-05-29T19:01:51.786Z,10.80
2019-05-29T19:04:21.412Z,18.63
2019-05-29T19:06:50.226Z,35.00
2019-05-29T19:09:18.930Z,19.40
2019-05-29T19:11:47.372Z,13.73
2019-05-29T19:14:15.808Z,12.00
2019-05-29T19:16:44.241Z,9.30
2019-05-29T19:19:12.656Z,12.60
2019-05-29T19:21:41.103Z,10.53
2019-05-29T19:24:09.517Z,10.60
2019-05-29T19:26:37.961Z,12.13
2019-05-29T19:29:06.377Z,10.27
2019-05-29T19:31:34.807Z,13.87
2019-05-29T19:34:03.234Z,10.20
2019-05-29T19:36:31.867Z,10.93
2019-05-29T19:39:00.466Z,12.50
2019-05-29T19:41:30.059Z,12.83
2019-05-29T19:43:58.663Z,10.93
2019-05-29T19:46:27.107Z,11.33
2019-05-29T19:48:55.602Z,11.47
2019-05-29T19:51:25.247Z,14.13
2019-05-29T19:53:53.899Z,13.37
2019-05-29T19:56:22.326Z,12.23
2019-05-29T19:58:50.762Z,10.80
2019-05-29T20:01:30.790Z,15.63
2019-05-29T20:03:49.337Z,17.20
2019-05-29T20:06:17.775Z,14.13
2019-05-29T20:08:46.388Z,14.83
2019-05-29T20:11:14.832Z,14.40
2019-05-29T20:13:43.256Z,14.40
2019-05-29T20:16:11.697Z,14.90
2019-05-29T20:18:40.151Z,18.33
2019-05-29T20:21:08.641Z,18.83
2019-05-29T20:23:37.073Z,14.70
2019-05-29T20:26:05.493Z,16.40
2019-05-29T20:28:34.255Z,17.47
2019-05-29T20:31:02.720Z,20.90
2019-05-29T20:33:32.384Z,25.57
2019-05-29T20:36:00.992Z,29.53
2019-05-29T20:38:29.415Z,16.73
2019-05-29T20:40:57.837Z,18.43
2019-05-29T20:43:26.269Z,17.27
2019-05-29T20:45:54.702Z,15.03
2019-05-29T20:48:23.129Z,16.00
2019-05-29T20:50:51.564Z,17.00
2019-05-29T20:53:19.994Z,23.90
2019-05-29T20:55:48.429Z,18.07
2019-05-29T20:58:24.433Z,15.70
2019-05-29T21:00:47.027Z,16.13
2019-05-29T21:03:15.543Z,18.03
2019-05-29T21:05:43.977Z,17.37
2019-05-29T21:08:12.397Z,16.07
2019-05-29T21:10:42.043Z,18.63
2019-05-29T21:13:10.956Z,25.40
2019-05-29T21:15:39.724Z,16.30
2019-05-29T21:18:08.188Z,18.63
2019-05-29T21:20:36.653Z,14.40
2019-05-29T21:23:05.216Z,14.67
2019-05-29T21:25:34.575Z,22.90
2019-05-29T21:28:03.816Z,17.30
2019-05-29T21:30:32.238Z,19.40
2019-05-29T21:33:00.680Z,16.80
2019-05-29T21:35:29.101Z,16.30
2019-05-29T21:37:57.525Z,19.07
2019-05-29T21:40:25.970Z,16.30
2019-05-29T21:42:54.385Z,20.73
2019-05-29T21:45:22.837Z,15.13
2019-05-29T21:47:51.260Z,20.07
2019-05-29T21:50:19.706Z,15.57
2019-05-29T21:52:48.138Z,16.30
2019-05-29T21:55:16.998Z,17.80
2019-05-29T21:57:48.420Z,13.37
2019-05-29T22:00:37.876Z,11.03
2019-05-29T22:03:06.932Z,13.87
2019-05-29T22:05:35.365Z,16.57
2019-05-29T22:08:03.850Z,9.70
2019-05-29T22:10:32.381Z,14.80
2019-05-29T22:13:01.277Z,20.30
2019-05-29T22:15:29.700Z,19.10
2019-05-29T22:17:59.198Z,18.70
2019-05-29T22:20:28.067Z,12.20
2019-05-29T22:22:57.194Z,12.60
2019-05-29T22:25:25.692Z,15.10
2019-05-29T22:27:55.469Z,11.93
2019-05-29T22:30:24.108Z,16.73
2019-05-29T22:32:53.291Z,12.00
2019-05-29T22:35:21.960Z,14.53
2019-05-29T22:37:51.446Z,10.80
2019-05-29T22:40:20.244Z,14.00
2019-05-29T22:42:48.676Z,11.67
2019-05-29T22:45:17.844Z,12.47
2019-05-29T22:47:46.593Z,11.07
2019-05-29T22:50:15.457Z,15.27
2019-05-29T22:52:43.888Z,12.07
2019-05-29T22:55:12.556Z,11.70
2019-05-29T22:57:40.992Z,11.17
2019-05-29T23:00:10.233Z,12.03
2019-05-29T23:02:38.671Z,14.27
2019-05-29T23:05:07.741Z,12.30
2019-05-29T23:07:36.174Z,29.27
2019-05-29T23:10:09.257Z,12.00
2019-05-29T23:12:37.678Z,14.40
2019-05-29T23:15:07.877Z,13.40
2019-05-29T23:17:36.306Z,15.70
2019-05-29T23:20:09.425Z,21.50
2019-05-29T23:22:37.931Z,14.43
2019-05-29T23:25:07.096Z,12.87
2019-05-29T23:27:35.950Z,14.87
2019-05-29T23:30:08.875Z,11.33
2019-05-29T23:32:37.309Z,12.60
2019-05-29T23:35:07.197Z,11.87
2019-05-29T23:37:35.618Z,12.03
2019-05-29T23:40:06.586Z,12.07
2019-05-29T23:42:35.013Z,13.73
2019-05-29T23:45:05.386Z,13.43
2019-05-29T23:47:33.799Z,11.30
2019-05-29T23:50:03.192Z,10.63
2019-05-29T23:52:32.541Z,12.70
2019-05-29T23:55:01.939Z,16.20
2019-05-29T23:57:30.570Z,14.13
